Legend :    VFR   Marginal VFR   IFR   Intensive IFR   Very Intensive IFR
Visi :
Ceiling :
>= 8 km
>= 3000ft
5 to 8 km
1000 to 3000 ft
1500m to 5 km
500 to 1000 ft
800 to 1500m
200 to 500 ft
< 800m
< 200 ft
Symbols :   Thunderstorms  Fog  Heavy snow  Heavy precipitations  Wind > 20 kt
SIGMETs :     Misc.  Thunderstorms  Icing  Turbulence  Mountain Waves  Volcanic Ashes







- Airport Elevation : 876 ft
- IATA code : MBX


LJMB - Maribor

CURRENT METAR :
  • 240700Z 35010KT 9999 FEW033 10/04 Q1020

EXPIRED METARs :
  • 240630Z 35010KT 9999 FEW033 09/03 Q1019
  • 240600Z 35009KT 9999 FEW033 09/03 Q1019
  • 240530Z 35006KT CAVOK 07/03 Q1019
  • 240500Z 35005KT CAVOK 07/03 Q1019
  • 240430Z 01005KT CAVOK 08/03 Q1018

TAF TAF LJMB
Valid from the 24 at 06:00 until the 25 at 06:00 UTC


240500Z 2406/2506 36010KT CAVOK
PROB40
TEMPO 2406/2409 36015G30KT
PROB40
TEMPO 2409/2417 36015G25KT
BECMG 2421/2424 36005KT
No reported NOTAMs for that airfield.


LOGIN :  

Disclaimer |     EN      FR      IT 



MET'MAP, your aeronautical weather chart ! - Copyright ORBIFLY December 2007 - Disclaimer


ORBIFLY MET'MAP TEAM :

Programming & Development : Alexandra Zaïnal
Concept & Development : Baudouin d'Aumeries
Co-Development & Prog : Marc-Olivier Méhu
Technical & hardware support : Manuel Goepfert

Contact : metmap@orbifly.com




SOURCES & CREDITS :

   NOAA